createdAt,value
2019-04-22T00:36:35.226Z,15.49
2019-04-22T00:37:43.781Z,15.62
2019-04-22T00:38:38.646Z,15.47
2019-04-22T00:39:42.599Z,15.50
2019-04-22T00:40:41.246Z,15.56
2019-04-22T00:41:43.823Z,15.49
2019-04-22T00:42:41.559Z,15.44
2019-04-22T00:43:39.612Z,15.46
2019-04-22T00:44:40.330Z,15.38
2019-04-22T00:45:52.516Z,15.36
2019-04-22T00:46:43.207Z,15.41
2019-04-22T00:47:41.473Z,15.39
2019-04-22T00:48:43.124Z,15.39
2019-04-22T00:50:37.428Z,15.35
2019-04-22T00:51:44.934Z,15.43
2019-04-22T00:52:39.912Z,15.46
2019-04-22T00:53:39.186Z,15.35
2019-04-22T00:54:45.623Z,15.36
2019-04-22T00:55:37.866Z,15.46
2019-04-22T00:56:35.743Z,15.47
2019-04-22T00:57:42.453Z,15.38
2019-04-22T00:58:42.687Z,15.44
2019-04-22T00:59:42.132Z,15.35
2019-04-22T01:00:42.021Z,15.36
2019-04-22T01:01:37.247Z,15.38
2019-04-22T01:02:44.899Z,15.34
2019-04-22T01:03:44.737Z,15.36
2019-04-22T01:04:39.316Z,15.34
2019-04-22T01:05:40.433Z,15.36
2019-04-22T01:06:41.649Z,15.35
2019-04-22T01:07:35.803Z,15.39
2019-04-22T01:08:48.142Z,15.35
2019-04-22T01:09:38.870Z,15.32
2019-04-22T01:10:39.667Z,15.28
2019-04-22T01:11:38.837Z,15.34
2019-04-22T01:12:39.592Z,15.32
2019-04-22T01:13:38.764Z,15.35
2019-04-22T01:14:42.987Z,15.28
2019-04-22T01:15:40.429Z,15.20
2019-04-22T01:16:44.222Z,15.20
2019-04-22T01:17:41.759Z,15.31
2019-04-22T01:18:37.718Z,15.27
2019-04-22T01:19:45.072Z,15.25
2019-04-22T01:21:13.387Z,15.27
2019-04-22T01:21:40.381Z,15.13
2019-04-22T01:22:36.270Z,15.14
2019-04-22T01:23:37.564Z,15.23
2019-04-22T01:24:32.776Z,15.13
2019-04-22T01:25:30.574Z,15.14
2019-04-22T01:26:28.998Z,15.16
2019-04-22T01:27:33.438Z,15.16
2019-04-22T01:28:27.866Z,15.14
2019-04-22T01:29:26.177Z,15.17
2019-04-22T01:30:24.198Z,15.13
2019-04-22T01:31:19.642Z,15.10
2019-04-22T01:32:22.697Z,15.10
2019-04-22T01:33:23.821Z,15.10
2019-04-22T01:34:27.867Z,15.14
2019-04-22T01:35:31.149Z,15.17
2019-04-22T01:36:35.270Z,15.13
2019-04-22T01:37:34.355Z,15.09
2019-04-22T01:38:36.684Z,15.07
2019-04-22T01:39:46.380Z,15.09
2019-04-22T01:40:45.514Z,15.10
2019-04-22T01:41:48.613Z,15.06
2019-04-22T01:42:43.238Z,15.01
2019-04-22T01:43:54.411Z,15.06
2019-04-22T01:44:40.227Z,15.09
2019-04-22T01:45:41.396Z,15.03
2019-04-22T01:46:47.776Z,15.06
2019-04-22T01:48:39.409Z,15.02
2019-04-22T01:49:40.225Z,15.03
2019-04-22T01:50:41.092Z,15.06
2019-04-22T01:51:56.617Z,15.06
2019-04-22T01:52:39.869Z,15.11
2019-04-22T01:53:43.291Z,15.07
2019-04-22T01:54:43.384Z,15.07
2019-04-22T01:56:42.496Z,15.13
2019-04-22T01:57:37.706Z,14.99
2019-04-22T01:58:36.148Z,15.10
2019-04-22T01:59:31.829Z,14.99
2019-04-22T02:00:40.151Z,14.94
2019-04-22T02:01:43.696Z,14.96
2019-04-22T02:02:42.359Z,15.03
2019-04-22T02:03:41.430Z,14.94
2019-04-22T02:05:40.216Z,14.99
2019-04-22T02:06:44.623Z,14.92
2019-04-22T02:07:42.464Z,14.94
2019-04-22T02:08:44.673Z,14.95
2019-04-22T02:10:49.255Z,14.89
2019-04-22T02:11:48.327Z,14.89
2019-04-22T02:12:43.362Z,14.91
2019-04-22T02:13:42.773Z,14.81
2019-04-22T02:14:48.457Z,14.88
2019-04-22T02:15:39.925Z,14.83
2019-04-22T02:16:41.293Z,14.92
2019-04-22T02:20:35.930Z,14.80
2019-04-22T02:21:42.551Z,14.83
2019-04-22T02:23:00.823Z,14.84
2019-04-22T02:23:53.973Z,14.84
2019-04-22T02:24:59.049Z,14.86
2019-04-22T02:25:42.703Z,14.88
2019-04-22T02:26:41.976Z,14.83
2019-04-22T02:27:50.862Z,14.81
2019-04-22T02:28:40.101Z,14.81
2019-04-22T02:29:44.472Z,14.83
2019-04-22T02:31:01.901Z,14.78
2019-04-22T02:31:44.485Z,14.72
2019-04-22T02:33:11.486Z,14.77
2019-04-22T02:34:45.982Z,14.77
2019-04-22T02:35:58.231Z,14.81
2019-04-22T02:36:43.139Z,14.77
2019-04-22T02:37:35.859Z,14.72
2019-04-22T02:39:45.191Z,14.77
2019-04-22T02:41:06.712Z,14.64
2019-04-22T02:42:42.840Z,14.65
2019-04-22T02:44:42.969Z,14.68
2019-04-22T02:47:01.167Z,14.60
2019-04-22T02:48:26.213Z,14.62
2019-04-22T02:50:01.751Z,14.52
2019-04-22T02:50:45.361Z,14.55
2019-04-22T02:51:36.664Z,14.58
2019-04-22T02:54:19.374Z,14.68
2019-04-22T02:55:51.211Z,14.64
2019-04-22T02:57:04.413Z,14.68
2019-04-22T02:59:00.127Z,14.51
2019-04-22T03:00:44.358Z,14.55
2019-04-22T03:01:41.236Z,14.46
2019-04-22T03:03:11.067Z,14.50
2019-04-22T03:04:01.656Z,14.45
2019-04-22T03:04:59.872Z,14.46
2019-04-22T03:06:55.401Z,14.43
2019-04-22T03:07:53.789Z,14.42
2019-04-22T03:08:45.517Z,14.45
2019-04-22T03:09:59.542Z,14.42
2019-04-22T03:12:41.345Z,14.47
2019-04-22T03:15:52.847Z,14.45
2019-04-22T03:17:45.656Z,14.45
2019-04-22T03:19:09.906Z,14.46
2019-04-22T03:19:50.659Z,14.50
2019-04-22T03:20:51.883Z,14.33
2019-04-22T03:22:52.070Z,14.43
2019-04-22T03:23:55.893Z,14.36
2019-04-22T03:24:51.305Z,14.40
2019-04-22T03:26:05.040Z,14.36
2019-04-22T03:27:38.797Z,14.42
2019-04-22T03:30:10.426Z,14.32
2019-04-22T03:30:53.600Z,14.35
2019-04-22T03:34:15.433Z,14.37
2019-04-22T03:35:19.153Z,14.35
2019-04-22T03:42:52.455Z,14.32
2019-04-22T03:43:39.555Z,14.25
2019-04-22T03:47:41.489Z,14.32
2019-04-22T03:48:26.277Z,14.21
2019-04-22T03:49:39.285Z,14.28
2019-04-22T03:50:25.884Z,14.29
2019-04-22T03:51:36.149Z,14.24
2019-04-22T03:52:22.887Z,14.24
2019-04-22T03:54:40.335Z,14.22
2019-04-22T03:56:56.427Z,14.28
2019-04-22T03:57:40.589Z,14.29
2019-04-22T03:58:21.848Z,14.27
2019-04-22T03:59:33.506Z,14.24
2019-04-22T04:00:35.606Z,14.21
2019-04-22T04:01:37.002Z,14.15
2019-04-22T04:02:38.662Z,14.12
2019-04-22T04:03:28.951Z,14.14
2019-04-22T04:05:41.529Z,14.21
2019-04-22T04:06:36.616Z,14.14
2019-04-22T04:07:47.439Z,14.14
2019-04-22T04:09:32.160Z,14.18
2019-04-22T04:10:37.656Z,14.20
2019-04-22T04:12:28.823Z,14.12
2019-04-22T04:17:34.877Z,14.07
2019-04-22T04:18:33.070Z,14.06
2019-04-22T04:19:34.928Z,14.00
2019-04-22T04:20:32.282Z,14.02
2019-04-22T04:24:57.912Z,14.03
2019-04-22T04:27:43.179Z,13.99
2019-04-22T04:29:51.481Z,14.09
2019-04-22T04:33:36.037Z,14.00
2019-04-22T04:34:43.739Z,14.06
2019-04-22T04:36:35.513Z,14.14
2019-04-22T04:37:42.621Z,13.99
2019-04-22T04:38:28.842Z,14.04
2019-04-22T04:43:25.225Z,14.00
2019-04-22T04:45:00.866Z,13.97
2019-04-22T04:45:41.047Z,13.97
2019-04-22T04:46:42.853Z,14.03
2019-04-22T04:47:44.039Z,14.02
2019-04-22T04:48:34.980Z,14.03
2019-04-22T04:50:34.803Z,14.00
2019-04-22T04:51:32.998Z,13.99
2019-04-22T04:52:39.802Z,14.03
2019-04-22T04:54:32.886Z,14.03
2019-04-22T04:55:35.105Z,14.09
2019-04-22T04:56:38.513Z,13.97
2019-04-22T04:57:41.002Z,14.12
2019-04-22T04:58:36.763Z,14.14
2019-04-22T04:59:39.386Z,14.18
2019-04-22T05:01:35.589Z,14.20
2019-04-22T05:02:37.383Z,14.29
2019-04-22T05:03:39.712Z,14.36
2019-04-22T05:04:31.242Z,14.75
2019-04-22T05:05:29.498Z,15.36
2019-04-22T05:06:36.896Z,15.84
2019-04-22T05:08:39.034Z,16.20
2019-04-22T05:09:34.046Z,16.45
2019-04-22T05:10:41.183Z,16.57
2019-04-22T05:11:38.210Z,16.85
2019-04-22T05:13:35.127Z,17.00
2019-04-22T05:14:36.866Z,16.75
2019-04-22T05:15:23.068Z,16.76
2019-04-22T05:17:25.772Z,16.89
2019-04-22T05:18:29.330Z,17.15
2019-04-22T05:19:26.215Z,17.34
2019-04-22T05:20:32.013Z,16.93
2019-04-22T05:22:28.558Z,17.43
2019-04-22T05:23:38.816Z,17.63
2019-04-22T05:24:28.474Z,17.22
2019-04-22T05:25:24.466Z,17.08
2019-04-22T05:26:30.984Z,17.28
2019-04-22T05:27:29.432Z,17.16
2019-04-22T05:28:26.615Z,16.61
2019-04-22T05:29:34.608Z,16.39
2019-04-22T05:31:15.427Z,16.15
2019-04-22T05:32:27.143Z,16.23
2019-04-22T05:33:26.287Z,16.43
2019-04-22T05:34:22.554Z,16.49
2019-04-22T05:40:22.008Z,17.93
2019-04-22T05:41:10.140Z,18.10
2019-04-22T05:42:15.219Z,18.23
2019-04-22T05:43:13.902Z,18.69
2019-04-22T05:44:14.751Z,18.50
2019-04-22T05:45:14.809Z,18.30
2019-04-22T05:46:13.965Z,17.52
2019-04-22T05:47:15.209Z,17.40
2019-04-22T05:48:15.021Z,17.34
2019-04-22T05:49:18.868Z,16.86
2019-04-22T05:50:16.879Z,16.68
2019-04-22T05:51:09.696Z,16.48
2019-04-22T05:52:17.242Z,16.21
2019-04-22T05:53:07.093Z,16.24
2019-04-22T05:54:14.744Z,16.30
2019-04-22T05:55:14.321Z,16.60
2019-04-22T05:56:23.877Z,16.68
2019-04-22T05:57:14.522Z,16.39
2019-04-22T05:58:15.248Z,16.43
2019-04-22T05:59:10.348Z,16.58
2019-04-22T06:00:17.970Z,16.61
2019-04-22T06:03:12.285Z,17.92
2019-04-22T06:04:09.797Z,18.07
2019-04-22T06:05:11.961Z,18.18
2019-04-22T06:06:16.340Z,18.03
2019-04-22T06:07:13.678Z,18.00
2019-04-22T06:08:13.256Z,17.79
2019-04-22T06:09:12.545Z,17.56
2019-04-22T06:10:22.903Z,17.52
2019-04-22T06:11:20.901Z,17.55
2019-04-22T06:12:10.703Z,17.06
2019-04-22T06:13:06.055Z,16.58
2019-04-22T06:14:11.630Z,16.58
2019-04-22T06:15:12.793Z,16.41
2019-04-22T06:16:09.253Z,16.43
2019-04-22T06:18:16.140Z,16.39
2019-04-22T06:19:13.769Z,16.48
2019-04-22T06:20:10.597Z,16.33
2019-04-22T06:21:12.652Z,16.17
2019-04-22T06:22:25.407Z,16.27
2019-04-22T06:24:16.618Z,16.33
2019-04-22T06:25:22.716Z,16.25
2019-04-22T06:26:27.223Z,16.23
2019-04-22T06:27:19.122Z,16.24
2019-04-22T06:28:22.017Z,16.23
2019-04-22T06:29:15.074Z,16.34
2019-04-22T06:30:17.296Z,16.34
2019-04-22T06:31:21.040Z,16.42
2019-04-22T06:33:15.302Z,16.48
2019-04-22T06:34:17.222Z,16.43
2019-04-22T06:35:19.831Z,16.50
2019-04-22T06:36:21.107Z,16.83
2019-04-22T06:37:13.054Z,17.01
2019-04-22T06:39:17.344Z,17.70
2019-04-22T06:40:16.418Z,17.64
2019-04-22T06:41:16.848Z,18.15
2019-04-22T06:42:13.426Z,18.48
2019-04-22T06:43:33.786Z,18.81
2019-04-22T06:45:20.463Z,18.90
2019-04-22T06:46:14.709Z,19.06
2019-04-22T06:47:25.242Z,18.26
2019-04-22T06:49:18.742Z,18.08
2019-04-22T06:50:16.418Z,18.05
2019-04-22T06:51:18.009Z,17.95
2019-04-22T06:52:17.038Z,18.07
2019-04-22T06:53:09.095Z,18.23
2019-04-22T06:54:14.108Z,18.30
2019-04-22T06:55:15.360Z,18.55
2019-04-22T06:56:13.623Z,18.76
2019-04-22T06:57:13.791Z,19.19
2019-04-22T06:58:10.685Z,19.37
2019-04-22T06:59:16.865Z,19.78
2019-04-22T07:00:14.376Z,20.26
2019-04-22T07:01:18.214Z,20.62
2019-04-22T07:02:18.096Z,20.87
2019-04-22T07:04:14.141Z,21.24
2019-04-22T07:05:19.781Z,20.58
2019-04-22T07:06:12.763Z,20.58
2019-04-22T07:07:14.158Z,21.04
2019-04-22T07:08:30.474Z,21.94
2019-04-22T07:10:23.815Z,22.97
2019-04-22T07:11:06.238Z,22.49
2019-04-22T07:12:11.627Z,22.79
2019-04-22T07:13:21.116Z,22.76
2019-04-22T07:14:11.937Z,22.22
2019-04-22T07:15:24.309Z,21.82
2019-04-22T07:16:13.272Z,21.99
2019-04-22T07:17:34.405Z,22.07
2019-04-22T07:23:54.014Z,22.18
2019-04-22T07:24:47.718Z,21.82
2019-04-22T07:27:08.158Z,22.52
2019-04-22T07:29:29.341Z,22.47
2019-04-22T07:30:26.228Z,22.76
2019-04-22T07:31:23.537Z,22.72
2019-04-22T07:37:43.535Z,21.54
2019-04-22T07:38:35.921Z,21.84
2019-04-22T07:44:26.423Z,21.43
2019-04-22T07:48:33.474Z,21.27
2019-04-22T07:50:44.795Z,21.32
2019-04-22T07:51:26.856Z,21.35
2019-04-22T07:53:21.935Z,21.37
2019-04-22T07:54:26.383Z,21.58
2019-04-22T07:56:12.213Z,21.67
2019-04-22T07:58:16.798Z,21.06
2019-04-22T07:59:09.475Z,20.84
2019-04-22T08:00:15.692Z,20.58
2019-04-22T08:01:15.613Z,20.77
2019-04-22T08:02:10.363Z,20.72
2019-04-22T08:03:14.618Z,20.88
2019-04-22T08:04:16.015Z,20.88
2019-04-22T08:06:07.911Z,20.85
2019-04-22T08:06:57.547Z,20.91
2019-04-22T08:10:39.044Z,21.27
2019-04-22T08:11:43.714Z,20.84
2019-04-22T08:14:02.590Z,20.47
2019-04-22T08:14:50.020Z,20.51
2019-04-22T08:15:48.331Z,20.62
2019-04-22T08:16:51.974Z,20.67
2019-04-22T08:17:59.854Z,20.87
2019-04-22T08:18:47.429Z,20.77
2019-04-22T08:19:50.130Z,20.89
2019-04-22T08:20:47.293Z,21.16
2019-04-22T08:21:49.430Z,21.31
2019-04-22T08:22:52.204Z,21.29
2019-04-22T08:24:51.261Z,21.21
2019-04-22T08:25:43.128Z,21.27
2019-04-22T08:26:52.021Z,21.28
2019-04-22T08:27:45.586Z,21.22
2019-04-22T08:28:45.838Z,21.22
2019-04-22T08:30:48.496Z,21.32
2019-04-22T08:31:49.656Z,21.21
2019-04-22T08:32:47.452Z,21.07
2019-04-22T08:33:49.636Z,21.07
2019-04-22T08:34:42.772Z,20.94
2019-04-22T08:36:05.001Z,20.85
2019-04-22T08:37:13.761Z,21.04
2019-04-22T08:39:10.954Z,21.28
2019-04-22T08:39:45.327Z,21.50
2019-04-22T08:40:53.361Z,21.40
2019-04-22T08:41:41.546Z,21.43
2019-04-22T08:42:58.376Z,21.37
2019-04-22T08:43:55.884Z,21.31
2019-04-22T08:45:57.958Z,21.28
2019-04-22T08:47:42.297Z,21.44
2019-04-22T08:48:48.390Z,21.38
2019-04-22T08:49:50.783Z,21.27
2019-04-22T08:50:44.682Z,21.35
2019-04-22T08:51:42.630Z,21.42
2019-04-22T08:52:51.043Z,21.58
2019-04-22T08:53:49.970Z,21.67
2019-04-22T08:54:46.943Z,21.68
2019-04-22T08:55:54.174Z,21.74
2019-04-22T08:58:03.306Z,21.71
2019-04-22T08:58:50.160Z,21.64
2019-04-22T08:59:48.713Z,21.68
2019-04-22T09:00:52.914Z,21.84
2019-04-22T09:01:47.176Z,21.79
2019-04-22T09:02:46.782Z,21.77
2019-04-22T09:03:50.449Z,21.79
2019-04-22T09:04:45.043Z,22.00
2019-04-22T09:05:55.355Z,21.99
2019-04-22T09:07:02.423Z,22.15
2019-04-22T09:07:47.115Z,22.25
2019-04-22T09:08:48.737Z,22.14
2019-04-22T09:09:44.419Z,22.30
2019-04-22T09:10:50.350Z,22.28
2019-04-22T09:11:52.966Z,22.20
2019-04-22T09:13:03.119Z,22.30
2019-04-22T09:13:50.421Z,22.58
2019-04-22T09:15:45.505Z,22.79
2019-04-22T09:16:43.988Z,22.80
2019-04-22T09:17:47.817Z,22.62
2019-04-22T09:18:48.741Z,22.83
2019-04-22T09:19:50.054Z,23.05
2019-04-22T09:20:49.292Z,23.12
2019-04-22T09:21:53.234Z,23.12
2019-04-22T09:22:51.523Z,23.25
2019-04-22T09:24:46.973Z,23.25
2019-04-22T09:26:03.814Z,22.94
2019-04-22T09:26:47.661Z,22.95
2019-04-22T09:27:51.215Z,23.15
2019-04-22T09:28:52.317Z,23.17
2019-04-22T09:29:43.096Z,23.31
2019-04-22T09:30:47.088Z,23.20
2019-04-22T09:31:47.413Z,23.09
2019-04-22T09:32:44.726Z,23.16
2019-04-22T09:33:43.374Z,23.01
2019-04-22T09:34:47.269Z,22.73
2019-04-22T09:36:50.225Z,22.46
2019-04-22T09:37:50.399Z,22.45
2019-04-22T09:38:41.136Z,22.62
2019-04-22T09:39:53.436Z,22.73
2019-04-22T09:40:50.036Z,22.79
2019-04-22T09:41:46.562Z,22.82
2019-04-22T09:44:47.610Z,23.31
2019-04-22T09:45:37.799Z,23.36
2019-04-22T09:46:47.204Z,23.36
2019-04-22T09:47:48.982Z,23.31
2019-04-22T09:49:53.200Z,23.33
2019-04-22T09:50:58.875Z,23.28
2019-04-22T09:51:44.957Z,23.05
2019-04-22T09:52:51.477Z,22.88
2019-04-22T09:53:57.785Z,22.95
2019-04-22T09:54:52.994Z,22.95
2019-04-22T09:55:45.126Z,23.17
2019-04-22T09:56:47.518Z,23.25
2019-04-22T09:57:47.029Z,23.31
2019-04-22T09:58:46.272Z,23.16
2019-04-22T09:59:52.511Z,23.15
2019-04-22T10:00:54.176Z,23.25
2019-04-22T10:01:40.990Z,23.40
2019-04-22T10:02:53.512Z,23.65
2019-04-22T10:03:51.674Z,23.88
2019-04-22T10:04:46.683Z,23.98
2019-04-22T10:05:52.490Z,23.94
2019-04-22T10:06:41.135Z,23.95
2019-04-22T10:07:47.359Z,24.16
2019-04-22T10:08:52.652Z,24.10
2019-04-22T10:10:49.065Z,24.16
2019-04-22T10:11:45.166Z,24.08
2019-04-22T10:12:42.838Z,24.08
2019-04-22T10:13:50.830Z,24.08
2019-04-22T10:14:45.647Z,23.93
2019-04-22T10:15:46.892Z,23.93
2019-04-22T10:17:47.280Z,23.60
2019-04-22T10:18:46.422Z,23.87
2019-04-22T10:19:51.710Z,23.87
2019-04-22T10:20:45.878Z,23.87
2019-04-22T10:22:02.948Z,23.73
2019-04-22T10:22:46.474Z,23.78
2019-04-22T10:23:45.367Z,23.46
2019-04-22T10:24:49.509Z,23.66
2019-04-22T10:25:45.912Z,24.00
2019-04-22T10:27:00.037Z,24.15
2019-04-22T10:27:47.720Z,24.21
2019-04-22T10:28:53.096Z,24.22
2019-04-22T10:29:52.247Z,24.40
2019-04-22T10:30:47.434Z,24.71
2019-04-22T10:31:43.671Z,24.84
2019-04-22T10:32:42.049Z,24.69
2019-04-22T10:33:38.170Z,24.71
2019-04-22T10:34:32.514Z,24.73
2019-04-22T10:35:23.586Z,24.87
2019-04-22T10:36:21.463Z,25.05
2019-04-22T10:37:22.402Z,24.81
2019-04-22T10:38:20.307Z,24.68
2019-04-22T10:39:20.439Z,24.10
2019-04-22T10:40:21.745Z,23.91
2019-04-22T10:41:20.702Z,23.79
2019-04-22T10:42:20.852Z,23.65
2019-04-22T10:43:21.109Z,23.84
2019-04-22T10:44:21.321Z,23.98
2019-04-22T10:45:21.843Z,24.32
2019-04-22T10:46:20.346Z,24.34
2019-04-22T10:47:20.354Z,24.02
2019-04-22T10:48:22.033Z,23.90
2019-04-22T10:49:20.418Z,24.02
2019-04-22T10:50:20.670Z,24.40
2019-04-22T10:51:20.372Z,24.65
2019-04-22T10:52:21.605Z,24.76
2019-04-22T10:53:21.661Z,24.83
2019-04-22T10:54:20.385Z,24.83
2019-04-22T10:55:21.317Z,24.99
2019-04-22T10:56:20.964Z,24.69
2019-04-22T10:57:20.402Z,24.77
2019-04-22T10:58:20.973Z,24.90
2019-04-22T10:59:20.677Z,25.10
2019-04-22T11:00:21.671Z,24.91
2019-04-22T11:01:21.170Z,24.91
2019-04-22T11:02:21.481Z,24.78
2019-04-22T11:03:20.503Z,24.57
2019-04-22T11:04:21.583Z,24.69
2019-04-22T11:05:21.886Z,24.90
2019-04-22T11:06:21.284Z,25.05
2019-04-22T11:07:25.246Z,25.17
2019-04-22T11:08:31.520Z,25.08
2019-04-22T11:09:23.356Z,25.21
2019-04-22T11:10:36.775Z,25.00
2019-04-22T11:11:30.188Z,24.83
2019-04-22T11:12:23.359Z,24.76
2019-04-22T11:13:22.110Z,24.96
2019-04-22T11:14:21.065Z,25.14
2019-04-22T11:15:20.500Z,25.21
2019-04-22T11:16:21.420Z,25.36
2019-04-22T11:17:21.747Z,25.43
2019-04-22T11:18:20.516Z,24.96
2019-04-22T11:19:21.407Z,24.78
2019-04-22T11:20:21.798Z,24.28
2019-04-22T11:21:20.539Z,24.06
2019-04-22T11:22:24.521Z,24.06
2019-04-22T11:23:20.695Z,24.18
2019-04-22T11:24:21.000Z,24.53
2019-04-22T11:25:21.647Z,24.37
2019-04-22T11:26:21.852Z,24.42
2019-04-22T11:27:21.201Z,24.53
2019-04-22T11:28:20.624Z,24.96
2019-04-22T11:29:21.416Z,25.08
2019-04-22T11:30:23.823Z,25.24
2019-04-22T11:31:20.742Z,25.08
2019-04-22T11:32:20.607Z,24.95
2019-04-22T11:33:20.705Z,25.15
2019-04-22T11:34:21.374Z,25.24
2019-04-22T11:35:21.841Z,25.51
2019-04-22T11:36:21.783Z,25.72
2019-04-22T11:37:20.833Z,25.06
2019-04-22T11:38:20.643Z,24.43
2019-04-22T11:39:21.753Z,24.47
2019-04-22T11:40:31.655Z,24.32
2019-04-22T11:41:21.599Z,24.40
2019-04-22T11:42:20.668Z,24.08
2019-04-22T11:43:21.944Z,24.10
2019-04-22T11:44:21.399Z,24.22
2019-04-22T11:45:21.510Z,24.39
2019-04-22T11:46:21.101Z,24.55
2019-04-22T11:47:21.473Z,24.87
2019-04-22T11:48:21.449Z,25.14
2019-04-22T11:49:21.869Z,25.33
2019-04-22T11:50:21.817Z,25.13
2019-04-22T11:51:22.034Z,25.23
2019-04-22T11:52:20.723Z,25.47
2019-04-22T11:53:20.752Z,25.47
2019-04-22T11:54:21.089Z,25.70
2019-04-22T11:55:20.745Z,25.95
2019-04-22T11:56:20.924Z,26.21
2019-04-22T11:57:21.146Z,26.06
2019-04-22T12:01:28.905Z,26.28
2019-04-22T12:02:33.122Z,26.23
2019-04-22T12:05:59.868Z,25.99
2019-04-22T12:07:00.129Z,25.88
2019-04-22T12:07:59.641Z,25.97
2019-04-22T12:08:59.688Z,25.83
2019-04-22T12:09:59.822Z,25.40
2019-04-22T12:11:03.596Z,24.98
2019-04-22T12:11:59.965Z,25.00
2019-04-22T12:13:03.923Z,24.76
2019-04-22T12:14:00.179Z,24.96
2019-04-22T12:15:01.096Z,25.21
2019-04-22T12:16:00.921Z,25.83
2019-04-22T12:18:43.069Z,25.88
2019-04-22T12:19:42.116Z,24.99
2019-04-22T12:26:44.457Z,25.39
2019-04-22T12:30:04.982Z,25.64
2019-04-22T12:38:41.817Z,26.85
